createdAt,value
2019-02-04T00:02:19.278Z,62.04
2019-02-04T00:04:52.779Z,62.02
2019-02-04T00:07:26.482Z,62.02
2019-02-04T00:09:59.982Z,62.04
2019-02-04T00:12:33.501Z,62.02
2019-02-04T00:15:08.862Z,61.96
2019-02-04T00:17:42.663Z,61.90
2019-02-04T00:20:16.153Z,61.82
2019-02-04T00:22:49.687Z,61.81
2019-02-04T00:25:23.201Z,61.81
2019-02-04T00:27:57.053Z,61.62
2019-02-04T00:30:30.524Z,61.70
2019-02-04T00:33:04.081Z,61.62
2019-02-04T00:35:37.552Z,61.72
2019-02-04T00:38:11.093Z,61.60
2019-02-04T00:40:44.504Z,61.71
2019-02-04T00:43:17.945Z,61.60
2019-02-04T00:45:51.358Z,61.66
2019-02-04T00:48:24.802Z,61.66
2019-02-04T00:50:58.281Z,61.69
2019-02-04T00:53:31.797Z,61.74
2019-02-04T00:56:05.606Z,61.62
2019-02-04T00:58:39.083Z,61.57
2019-02-04T01:01:12.868Z,61.61
2019-02-04T01:03:46.508Z,61.53
2019-02-04T01:06:19.935Z,61.54
2019-02-04T01:08:55.070Z,61.64
2019-02-04T01:11:28.552Z,61.66
2019-02-04T01:14:01.927Z,61.64
2019-02-04T01:16:35.260Z,61.70
2019-02-04T01:19:08.709Z,61.60
2019-02-04T01:21:42.189Z,61.68
2019-02-04T01:24:15.727Z,61.68
2019-02-04T01:26:49.148Z,61.57
2019-02-04T01:29:22.512Z,61.52
2019-02-04T01:31:56.002Z,61.71
2019-02-04T01:34:29.472Z,61.55
2019-02-04T01:37:02.913Z,61.73
2019-02-04T01:39:36.253Z,61.75
2019-02-04T01:42:09.766Z,61.81
2019-02-04T01:44:43.391Z,61.79
2019-02-04T01:47:16.759Z,61.73
2019-02-04T01:49:50.192Z,61.77
2019-02-04T01:52:23.629Z,61.77
2019-02-04T01:54:57.323Z,61.68
2019-02-04T01:57:30.756Z,61.76
2019-02-04T02:00:10.222Z,61.76
2019-02-04T02:02:43.675Z,61.70
2019-02-04T02:05:17.466Z,61.60
2019-02-04T02:07:50.877Z,61.65
2019-02-04T02:10:25.659Z,61.66
2019-02-04T02:12:59.180Z,61.48
2019-02-04T02:15:32.562Z,61.55
2019-02-04T02:18:05.991Z,61.56
2019-02-04T02:20:39.392Z,61.43
2019-02-04T02:23:12.798Z,61.57
2019-02-04T02:25:46.188Z,61.59
2019-02-04T02:28:19.536Z,61.54
2019-02-04T02:30:52.929Z,61.50
2019-02-04T02:33:26.275Z,61.56
2019-02-04T02:35:59.699Z,61.26
2019-02-04T02:38:33.036Z,61.40
2019-02-04T02:41:06.413Z,61.26
2019-02-04T02:43:39.757Z,61.46
2019-02-04T02:46:13.161Z,61.47
2019-02-04T02:48:46.571Z,61.29
2019-02-04T02:51:19.898Z,61.45
2019-02-04T02:53:53.256Z,61.34
2019-02-04T02:56:26.578Z,61.45
2019-02-04T02:58:59.928Z,61.38
2019-02-04T03:01:33.239Z,61.47
2019-02-04T03:04:06.724Z,61.41
2019-02-04T03:06:40.082Z,61.43
2019-02-04T03:09:13.431Z,61.41
2019-02-04T03:11:46.926Z,61.28
2019-02-04T03:14:20.306Z,61.31
2019-02-04T03:16:53.698Z,61.30
2019-02-04T03:19:27.061Z,61.28
2019-02-04T03:22:00.817Z,61.33
2019-02-04T03:24:34.188Z,61.37
2019-02-04T03:27:07.481Z,61.27
2019-02-04T03:29:40.841Z,61.37
2019-02-04T03:32:14.334Z,61.35
2019-02-04T03:34:47.754Z,61.25
2019-02-04T03:37:21.205Z,61.21
2019-02-04T03:39:54.622Z,61.10
2019-02-04T03:42:28.001Z,61.12
2019-02-04T03:45:01.518Z,61.06
2019-02-04T03:47:34.805Z,61.12
2019-02-04T03:50:10.804Z,61.12
2019-02-04T03:52:44.260Z,61.15
2019-02-04T03:55:18.447Z,61.14
2019-02-04T03:57:51.843Z,61.24
2019-02-04T04:00:35.693Z,61.25
2019-02-04T04:03:09.010Z,61.32
2019-02-04T04:05:42.434Z,61.34
2019-02-04T04:08:15.744Z,61.38
2019-02-04T04:10:49.097Z,61.38
2019-02-04T04:13:22.434Z,61.50
2019-02-04T04:15:55.776Z,61.51
2019-02-04T04:18:29.098Z,61.58
2019-02-04T04:21:02.434Z,61.60
2019-02-04T04:23:35.762Z,61.72
2019-02-04T04:26:09.447Z,61.60
2019-02-04T04:28:42.845Z,61.59
2019-02-04T04:31:16.200Z,61.51
2019-02-04T04:33:49.519Z,61.58
2019-02-04T04:36:22.892Z,61.61
2019-02-04T04:38:56.208Z,61.54
2019-02-04T04:41:29.556Z,61.52
2019-02-04T04:44:02.994Z,61.65
2019-02-04T04:46:36.331Z,61.56
2019-02-04T04:49:09.658Z,61.54
2019-02-04T04:51:43.004Z,61.37
2019-02-04T04:54:16.329Z,61.33
2019-02-04T04:56:49.746Z,61.41
2019-02-04T04:59:23.232Z,61.63
2019-02-04T05:01:56.620Z,61.72
2019-02-04T05:04:29.968Z,61.51
2019-02-04T05:07:03.289Z,61.49
2019-02-04T05:09:36.630Z,61.32
2019-02-04T05:12:10.019Z,60.98
2019-02-04T05:14:43.428Z,60.85
2019-02-04T05:17:16.744Z,60.99
2019-02-04T05:19:50.104Z,60.92
2019-02-04T05:22:23.426Z,60.84
2019-02-04T05:24:56.775Z,60.98
2019-02-04T05:27:30.098Z,61.08
2019-02-04T05:30:04.693Z,61.01
2019-02-04T05:32:38.030Z,61.10
2019-02-04T05:35:11.631Z,61.19
2019-02-04T05:37:45.029Z,61.18
2019-02-04T05:40:18.626Z,61.20
2019-02-04T05:42:52.294Z,61.22
2019-02-04T05:45:25.647Z,61.24
2019-02-04T05:47:58.996Z,61.28
2019-02-04T05:50:32.344Z,61.29
2019-02-04T05:53:05.736Z,61.21
2019-02-04T05:55:39.184Z,61.21
2019-02-04T05:58:12.504Z,61.20
2019-02-04T06:00:46.626Z,61.13
2019-02-04T06:03:20.085Z,61.13
2019-02-04T06:05:53.460Z,61.10
2019-02-04T06:08:26.782Z,61.08
2019-02-04T06:11:00.202Z,61.17
2019-02-04T06:13:33.523Z,61.18
2019-02-04T06:16:07.279Z,61.21
2019-02-04T06:18:40.670Z,61.29
2019-02-04T06:21:14.094Z,61.33
2019-02-04T06:23:47.562Z,61.35
2019-02-04T06:26:21.299Z,61.45
2019-02-04T06:28:54.695Z,61.48
2019-02-04T06:31:28.054Z,61.51
2019-02-04T06:34:01.389Z,61.62
2019-02-04T06:36:34.805Z,61.56
2019-02-04T06:39:10.242Z,61.57
2019-02-04T06:41:43.592Z,61.71
2019-02-04T06:44:16.981Z,61.74
2019-02-04T06:46:50.329Z,61.79
2019-02-04T06:49:23.678Z,61.78
2019-02-04T06:51:57.101Z,62.04
2019-02-04T06:54:30.423Z,62.06
2019-02-04T06:57:03.961Z,62.13
2019-02-04T06:59:37.663Z,62.04
2019-02-04T07:02:11.084Z,61.97
2019-02-04T07:04:44.414Z,62.07
2019-02-04T07:07:17.774Z,62.06
2019-02-04T07:09:51.124Z,62.03
2019-02-04T07:12:24.569Z,62.07
2019-02-04T07:14:57.892Z,62.52
2019-02-04T07:17:31.243Z,62.36
2019-02-04T07:20:07.578Z,62.23
2019-02-04T07:22:40.936Z,61.99
2019-02-04T07:25:16.099Z,62.09
2019-02-04T07:27:49.519Z,62.10
2019-02-04T07:30:25.645Z,61.92
2019-02-04T07:32:59.341Z,61.79
2019-02-04T07:35:32.707Z,61.80
2019-02-04T07:38:06.109Z,61.79
2019-02-04T07:40:39.430Z,61.72
2019-02-04T07:43:12.790Z,61.79
2019-02-04T07:45:46.185Z,61.76
2019-02-04T07:48:19.538Z,61.83
2019-02-04T07:50:52.951Z,61.76
2019-02-04T07:53:26.378Z,61.63
2019-02-04T07:55:59.700Z,61.67
2019-02-04T07:58:33.063Z,61.64
2019-02-04T08:01:06.389Z,61.65
2019-02-04T08:03:39.742Z,61.92
2019-02-04T08:06:13.411Z,62.02
2019-02-04T08:08:46.756Z,61.85
2019-02-04T08:11:20.113Z,61.61
2019-02-04T08:13:53.440Z,61.51
2019-02-04T08:16:26.917Z,61.50
2019-02-04T08:19:00.201Z,61.33
2019-02-04T08:21:33.623Z,61.67
2019-02-04T08:24:07.071Z,61.76
2019-02-04T08:26:40.418Z,61.59
2019-02-04T08:29:13.745Z,61.63
2019-02-04T08:31:47.132Z,61.47
2019-02-04T08:34:20.530Z,61.65
2019-02-04T08:36:53.898Z,61.66
2019-02-04T08:39:27.377Z,61.86
2019-02-04T08:42:00.820Z,61.81
2019-02-04T08:44:34.143Z,61.75
2019-02-04T08:47:07.519Z,62.36
2019-02-04T08:49:40.979Z,62.40
2019-02-04T08:52:14.782Z,62.21
2019-02-04T08:54:48.099Z,62.08
2019-02-04T08:57:21.446Z,62.28
2019-02-04T08:59:54.931Z,62.17
2019-02-04T09:02:28.337Z,62.27
2019-02-04T09:05:01.670Z,62.29
2019-02-04T09:07:35.089Z,62.19
2019-02-04T09:10:11.580Z,62.08
2019-02-04T09:12:44.929Z,62.47
2019-02-04T09:15:18.661Z,62.30
2019-02-04T09:17:52.153Z,62.24
2019-02-04T09:20:25.718Z,61.47
2019-02-04T09:22:59.141Z,61.44
2019-02-04T09:25:32.545Z,60.16
2019-02-04T09:28:05.960Z,60.19
2019-02-04T09:30:39.355Z,59.54
2019-02-04T09:33:12.784Z,59.74
2019-02-04T09:35:46.174Z,60.43
2019-02-04T09:38:19.697Z,59.02
2019-02-04T09:40:53.063Z,60.77
2019-02-04T09:43:26.389Z,59.60
2019-02-04T09:45:59.895Z,59.86
2019-02-04T09:48:33.175Z,59.50
2019-02-04T09:51:06.547Z,59.88
2019-02-04T09:53:39.870Z,59.89
2019-02-04T09:56:13.366Z,59.49
2019-02-04T09:58:46.767Z,59.45
2019-02-04T10:01:20.131Z,59.45
2019-02-04T10:03:53.541Z,60.04
2019-02-04T10:06:26.999Z,60.04
2019-02-04T10:09:00.347Z,58.84
2019-02-04T10:11:33.979Z,59.90
2019-02-04T10:14:07.443Z,59.44
2019-02-04T10:16:40.893Z,60.16
2019-02-04T10:19:14.327Z,59.35
2019-02-04T10:21:47.840Z,59.27
2019-02-04T10:24:21.266Z,59.27
2019-02-04T10:26:54.657Z,58.68
2019-02-04T10:29:27.980Z,58.68
2019-02-04T10:32:01.436Z,57.98
2019-02-04T10:34:34.720Z,57.98
2019-02-04T10:37:08.222Z,57.34
2019-02-04T10:39:41.573Z,56.89
2019-02-04T10:42:15.116Z,55.81
2019-02-04T10:44:48.862Z,56.57
2019-02-04T10:47:22.191Z,56.57
2019-02-04T10:49:55.802Z,56.70
2019-02-04T10:52:29.234Z,56.59
2019-02-04T10:55:02.591Z,56.76
2019-02-04T10:57:40.506Z,56.84
2019-02-04T11:00:19.866Z,56.51
2019-02-04T11:02:53.311Z,54.18
2019-02-04T11:05:30.258Z,56.91
2019-02-04T11:08:04.057Z,55.37
2019-02-04T11:10:37.545Z,55.58
2019-02-04T11:13:16.092Z,56.28
2019-02-04T11:15:49.666Z,55.28
2019-02-04T11:18:23.145Z,55.54
2019-02-04T11:20:58.401Z,55.94
2019-02-04T11:23:31.916Z,54.70
2019-02-04T11:26:05.780Z,53.08
2019-02-04T11:28:39.125Z,55.86
2019-02-04T11:31:12.565Z,54.98
2019-02-04T11:33:45.963Z,53.89
2019-02-04T11:36:19.261Z,54.64
2019-02-04T11:38:52.618Z,54.64
2019-02-04T11:41:26.123Z,53.23
2019-02-04T11:43:59.493Z,51.97
2019-02-04T11:46:32.867Z,53.94
2019-02-04T11:49:06.207Z,49.68
2019-02-04T11:51:39.529Z,51.91
2019-02-04T11:54:12.943Z,53.70
2019-02-04T11:56:46.310Z,52.18
2019-02-04T11:59:19.899Z,53.29
2019-02-04T12:01:53.387Z,53.18
2019-02-04T12:04:26.791Z,53.18
2019-02-04T12:07:00.135Z,52.07
2019-02-04T12:09:33.526Z,52.69
2019-02-04T12:12:07.032Z,51.31
2019-02-04T12:14:40.422Z,51.02
2019-02-04T12:17:13.893Z,52.31
2019-02-04T12:19:47.219Z,47.87
2019-02-04T12:22:20.672Z,51.82
2019-02-04T12:24:53.982Z,52.17
2019-02-04T12:27:32.089Z,51.76
2019-02-04T12:30:02.467Z,52.06
2019-02-04T12:32:36.182Z,46.73
2019-02-04T12:35:11.434Z,51.54
2019-02-04T12:37:44.848Z,51.21
2019-02-04T12:40:18.398Z,51.45
2019-02-04T12:42:52.092Z,51.58
2019-02-04T12:45:36.639Z,51.19
2019-02-04T12:48:10.136Z,50.39
2019-02-04T12:50:43.521Z,50.44
2019-02-04T12:53:17.246Z,49.95
2019-02-04T12:55:50.549Z,50.07
2019-02-04T12:58:23.971Z,46.97
2019-02-04T13:00:57.350Z,49.52
2019-02-04T13:03:30.697Z,49.60
2019-02-04T13:06:04.675Z,50.47
2019-02-04T13:08:38.018Z,48.57
2019-02-04T13:11:11.409Z,50.92
2019-02-04T13:13:44.751Z,50.78
2019-02-04T13:16:18.058Z,50.71
2019-02-04T13:18:51.408Z,50.24
2019-02-04T13:21:24.723Z,50.47
2019-02-04T13:23:58.064Z,49.85
2019-02-04T13:26:31.525Z,50.19
2019-02-04T13:29:05.021Z,49.99
2019-02-04T13:31:38.422Z,50.13
2019-02-04T13:34:11.826Z,50.37
2019-02-04T13:36:45.217Z,49.87
2019-02-04T13:39:18.566Z,49.39
2019-02-04T13:41:51.899Z,50.00
2019-02-04T13:44:25.250Z,45.60
2019-02-04T13:46:58.669Z,50.05
2019-02-04T13:49:32.149Z,50.14
2019-02-04T13:52:05.508Z,50.17
2019-02-04T13:54:38.986Z,50.05
2019-02-04T13:57:12.414Z,50.02
2019-02-04T13:59:45.915Z,50.04
2019-02-04T14:02:19.280Z,49.87
2019-02-04T14:04:52.630Z,50.08
2019-02-04T14:07:26.100Z,50.65
2019-02-04T14:09:59.868Z,50.84
2019-02-04T14:12:33.194Z,50.36
2019-02-04T14:15:09.286Z,50.67
2019-02-04T14:17:42.617Z,50.79
2019-02-04T14:20:24.639Z,50.53
2019-02-04T14:22:58.062Z,51.39
2019-02-04T14:25:31.658Z,51.36
2019-02-04T14:28:05.701Z,51.06
2019-02-04T14:30:40.311Z,51.48
2019-02-04T14:33:13.640Z,51.33
2019-02-04T14:35:47.055Z,50.46
2019-02-04T14:38:20.441Z,51.53
2019-02-04T14:40:54.294Z,51.64
2019-02-04T14:43:30.358Z,51.62
2019-02-04T14:46:12.634Z,51.17
2019-02-04T14:48:52.041Z,50.65
2019-02-04T14:51:49.663Z,51.33
2019-02-04T14:54:45.727Z,51.44
2019-02-04T14:57:37.256Z,49.06
2019-02-04T15:00:35.125Z,51.53
2019-02-04T15:03:23.334Z,51.29
2019-02-04T15:06:08.913Z,51.61
2019-02-04T15:09:04.665Z,51.55
2019-02-04T15:11:50.272Z,51.57
2019-02-04T15:14:32.551Z,51.51
2019-02-04T15:17:12.294Z,51.24
2019-02-04T15:20:00.466Z,51.55
2019-02-04T15:22:49.299Z,51.73
2019-02-04T15:25:38.253Z,51.79
2019-02-04T15:28:17.625Z,51.72
2019-02-04T15:31:12.316Z,52.18
2019-02-04T15:33:52.071Z,51.43
2019-02-04T15:36:31.651Z,52.04
2019-02-04T15:39:11.385Z,51.51
2019-02-04T15:41:47.941Z,51.85
2019-02-04T15:44:59.167Z,51.85
2019-02-04T15:47:35.699Z,51.73
2019-02-04T15:50:18.249Z,51.78
2019-02-04T15:52:51.952Z,51.73
2019-02-04T15:55:25.726Z,51.62
2019-02-04T15:57:59.089Z,52.26
2019-02-04T16:00:32.497Z,52.26
2019-02-04T16:03:06.357Z,51.97
2019-02-04T16:05:39.683Z,51.61
2019-02-04T16:08:15.684Z,52.34
2019-02-04T16:10:49.009Z,52.40
2019-02-04T16:13:22.582Z,52.47
2019-02-04T16:15:56.571Z,52.64
2019-02-04T16:18:30.152Z,52.33
2019-02-04T16:21:03.646Z,52.43
2019-02-04T16:23:36.964Z,52.43
2019-02-04T16:26:10.431Z,52.43
2019-02-04T16:28:43.795Z,52.37
2019-02-04T16:31:17.129Z,52.48
2019-02-04T16:33:50.490Z,52.26
2019-02-04T16:36:24.192Z,52.27
2019-02-04T16:38:57.628Z,52.41
2019-02-04T16:41:30.940Z,52.54
2019-02-04T16:44:04.641Z,52.51
2019-02-04T16:46:38.035Z,52.35
2019-02-04T16:49:11.412Z,52.57
2019-02-04T16:51:45.078Z,52.54
2019-02-04T16:54:18.435Z,52.53
2019-02-04T16:56:51.839Z,52.56
2019-02-04T16:59:25.636Z,52.58
2019-02-04T17:01:58.964Z,52.65
2019-02-04T17:04:32.323Z,52.64
2019-02-04T17:07:05.928Z,52.63
2019-02-04T17:09:39.282Z,52.88
2019-02-04T17:12:12.604Z,52.84
2019-02-04T17:14:46.038Z,52.46
2019-02-04T17:17:19.425Z,53.02
2019-02-04T17:19:52.784Z,52.88
2019-02-04T17:22:26.361Z,52.89
2019-02-04T17:24:59.732Z,52.81
2019-02-04T17:27:33.070Z,52.81
2019-02-04T17:30:18.177Z,52.82
2019-02-04T17:32:51.598Z,52.97
2019-02-04T17:35:25.403Z,52.75
2019-02-04T17:37:58.830Z,52.57
2019-02-04T17:40:32.220Z,52.67
2019-02-04T17:43:07.020Z,52.66
2019-02-04T17:45:40.418Z,52.74
2019-02-04T17:48:13.923Z,52.75
2019-02-04T17:50:47.246Z,52.33
2019-02-04T17:53:20.874Z,51.38
2019-02-04T17:55:54.205Z,52.83
2019-02-04T17:58:27.556Z,52.28
2019-02-04T18:01:01.022Z,52.67
2019-02-04T18:03:34.436Z,52.19
2019-02-04T18:06:07.754Z,52.46
2019-02-04T18:08:41.145Z,52.01
2019-02-04T18:11:14.478Z,52.21
2019-02-04T18:13:47.836Z,51.84
2019-02-04T18:16:21.542Z,51.95
2019-02-04T18:18:54.970Z,51.92
2019-02-04T18:21:28.365Z,51.98
2019-02-04T18:24:01.715Z,51.86
2019-02-04T18:26:35.034Z,51.62
2019-02-04T18:29:08.452Z,51.70
2019-02-04T18:31:41.782Z,51.81
2019-02-04T18:34:15.139Z,51.57
2019-02-04T18:36:48.463Z,51.64
2019-02-04T18:39:21.931Z,51.64
2019-02-04T18:41:55.736Z,51.31
2019-02-04T18:44:29.148Z,51.25
2019-02-04T18:47:02.532Z,51.61
2019-02-04T18:49:35.879Z,51.17
2019-02-04T18:52:09.351Z,50.60
2019-02-04T18:54:43.080Z,50.60
2019-02-04T18:57:16.420Z,50.29
2019-02-04T18:59:49.773Z,50.74
2019-02-04T19:02:23.109Z,50.83
2019-02-04T19:04:56.460Z,50.26
2019-02-04T19:07:29.780Z,50.63
2019-02-04T19:10:05.246Z,50.82
2019-02-04T19:12:38.568Z,51.30
2019-02-04T19:15:17.259Z,51.52
2019-02-04T19:17:50.911Z,50.86
2019-02-04T19:20:24.710Z,51.38
2019-02-04T19:22:58.036Z,50.96
2019-02-04T19:25:33.296Z,50.45
2019-02-04T19:28:07.166Z,50.57
2019-02-04T19:30:47.155Z,50.69
2019-02-04T19:33:20.477Z,50.69
2019-02-04T19:35:53.900Z,50.59
2019-02-04T19:38:27.279Z,50.20
2019-02-04T19:41:01.009Z,50.47
2019-02-04T19:43:34.335Z,48.72
2019-02-04T19:46:07.703Z,50.23
2019-02-04T19:48:42.955Z,49.97
2019-02-04T19:51:17.985Z,50.25
2019-02-04T19:53:51.302Z,50.66
2019-02-04T19:56:24.815Z,50.66
2019-02-04T19:58:58.201Z,50.47
2019-02-04T20:01:31.567Z,50.59
2019-02-04T20:04:05.539Z,50.68
2019-02-04T20:06:39.363Z,49.65
2019-02-04T20:09:12.961Z,50.74
2019-02-04T20:11:46.492Z,50.71
2019-02-04T20:14:20.513Z,50.65
2019-02-04T20:16:54.288Z,50.53
2019-02-04T20:19:28.053Z,50.18
2019-02-04T20:22:01.377Z,50.39
2019-02-04T20:24:34.926Z,50.33
2019-02-04T20:27:08.379Z,50.62
2019-02-04T20:29:41.812Z,50.77
2019-02-04T20:32:15.198Z,50.64
2019-02-04T20:34:48.639Z,50.48
2019-02-04T20:37:22.513Z,50.79
2019-02-04T20:39:55.909Z,50.79
2019-02-04T20:42:29.264Z,50.70
2019-02-04T20:45:02.797Z,50.70
2019-02-04T20:47:36.186Z,50.43
2019-02-04T20:50:18.503Z,50.50
2019-02-04T20:52:51.831Z,50.42
2019-02-04T20:55:25.320Z,50.42
2019-02-04T20:57:58.640Z,50.37
2019-02-04T21:00:32.558Z,50.48
2019-02-04T21:03:05.946Z,50.00
2019-02-04T21:05:39.289Z,50.04
2019-02-04T21:08:12.688Z,50.04
2019-02-04T21:10:46.042Z,49.92
2019-02-04T21:13:19.373Z,49.88
2019-02-04T21:15:52.722Z,49.88
2019-02-04T21:18:26.042Z,50.53
2019-02-04T21:20:59.383Z,50.53
2019-02-04T21:23:32.706Z,49.91
2019-02-04T21:26:07.064Z,50.15
2019-02-04T21:28:40.566Z,50.61
2019-02-04T21:31:13.977Z,50.48
2019-02-04T21:33:47.297Z,50.02
2019-02-04T21:36:20.653Z,50.01
2019-02-04T21:38:54.062Z,49.99
2019-02-04T21:41:27.404Z,49.64
2019-02-04T21:44:01.107Z,49.66
2019-02-04T21:46:34.474Z,49.81
2019-02-04T21:49:07.866Z,49.33
2019-02-04T21:51:41.229Z,48.66
2019-02-04T21:54:14.551Z,49.26
2019-02-04T21:56:48.092Z,49.78
2019-02-04T21:59:21.426Z,49.78
2019-02-04T22:01:54.779Z,49.17
2019-02-04T22:04:28.109Z,48.96
2019-02-04T22:07:01.609Z,47.43
2019-02-04T22:09:34.930Z,48.96
2019-02-04T22:12:08.297Z,49.09
2019-02-04T22:14:41.616Z,48.94
2019-02-04T22:17:14.984Z,48.94
2019-02-04T22:19:48.311Z,48.97
2019-02-04T22:22:21.935Z,49.06
2019-02-04T22:24:55.359Z,49.36
2019-02-04T22:27:29.159Z,49.36
2019-02-04T22:30:02.484Z,49.24
2019-02-04T22:32:36.209Z,49.28
2019-02-04T22:35:09.674Z,49.21
2019-02-04T22:37:43.180Z,49.29
2019-02-04T22:40:19.039Z,49.25
2019-02-04T22:42:52.454Z,49.25
2019-02-04T22:45:25.861Z,48.60
2019-02-04T22:47:59.222Z,48.60
2019-02-04T22:50:32.613Z,49.57
2019-02-04T22:53:07.009Z,49.82
2019-02-04T22:55:40.429Z,49.59
2019-02-04T22:58:13.756Z,49.73
2019-02-04T23:00:53.119Z,49.66
2019-02-04T23:03:28.274Z,49.66
2019-02-04T23:06:01.693Z,49.22
2019-02-04T23:08:35.012Z,49.22
2019-02-04T23:11:08.415Z,49.66
2019-02-04T23:13:42.137Z,49.86
2019-02-04T23:16:15.559Z,49.82
2019-02-04T23:18:48.955Z,49.98
2019-02-04T23:21:22.372Z,49.72
2019-02-04T23:23:56.078Z,50.08
2019-02-04T23:26:29.430Z,50.27
2019-02-04T23:29:02.747Z,50.33
2019-02-04T23:31:36.091Z,50.33
2019-02-04T23:34:09.485Z,50.85
2019-02-04T23:36:42.849Z,50.85
2019-02-04T23:39:16.198Z,50.62
2019-02-04T23:41:49.550Z,51.23
2019-02-04T23:44:22.883Z,50.82
2019-02-04T23:46:56.506Z,50.79
2019-02-04T23:49:29.859Z,50.71
2019-02-04T23:52:03.240Z,50.80
2019-02-04T23:54:36.653Z,50.85
2019-02-04T23:57:10.083Z,50.82
2019-02-04T23:59:43.440Z,50.82
